createdAt,value
2018-07-19T00:01:34.112Z,101896.97
2018-07-19T00:04:02.393Z,101905.59
2018-07-19T00:06:30.718Z,101905.95
2018-07-19T00:08:59.078Z,101905.56
2018-07-19T00:11:28.441Z,101910.98
2018-07-19T00:13:56.748Z,101912.86
2018-07-19T00:16:25.065Z,101923.05
2018-07-19T00:18:53.382Z,101920.20
2018-07-19T00:21:21.668Z,101924.12
2018-07-19T00:23:49.977Z,101912.01
2018-07-19T00:26:18.257Z,101924.20
2018-07-19T00:28:46.680Z,101915.37
2018-07-19T00:31:14.949Z,101920.41
2018-07-19T00:33:43.277Z,101916.67
2018-07-19T00:36:12.700Z,101919.09
2018-07-19T00:38:41.122Z,101915.81
2018-07-19T00:41:09.433Z,101914.73
2018-07-19T00:43:37.890Z,101908.98
2018-07-19T00:46:06.166Z,101922.90
2018-07-19T00:48:34.552Z,101922.95
2018-07-19T00:51:02.849Z,101918.84
2018-07-19T00:53:31.181Z,101920.65
2018-07-19T00:55:59.496Z,101915.02
2018-07-19T00:58:27.905Z,101913.41
2018-07-19T01:00:56.176Z,101901.95
2018-07-19T01:03:24.478Z,101912.87
2018-07-19T01:05:52.769Z,101911.20
2018-07-19T01:08:21.034Z,101909.54
2018-07-19T01:10:49.328Z,101914.73
2018-07-19T01:13:17.613Z,101912.70
2018-07-19T01:15:46.043Z,101911.94
2018-07-19T01:18:14.333Z,101913.00
2018-07-19T01:20:42.632Z,101915.80
2018-07-19T01:23:11.196Z,101916.97
2018-07-19T01:25:39.528Z,101913.34
2018-07-19T01:28:07.819Z,101919.80
2018-07-19T01:30:36.160Z,101915.09
2018-07-19T01:33:04.445Z,101913.34
2018-07-19T01:35:32.817Z,101913.50
2018-07-19T01:38:01.092Z,101908.08
2018-07-19T01:40:29.397Z,101910.42
2018-07-19T01:42:57.670Z,101906.84
2018-07-19T01:45:26.009Z,101910.92
2018-07-19T01:47:54.345Z,101902.49
2018-07-19T01:50:22.691Z,101905.43
2018-07-19T01:52:50.964Z,101908.83
2018-07-19T01:55:19.256Z,101907.16
2018-07-19T01:57:47.550Z,101907.33
2018-07-19T02:00:15.883Z,101908.00
2018-07-19T02:02:44.121Z,101907.16
2018-07-19T02:05:12.409Z,101909.62
2018-07-19T02:07:40.698Z,101915.19
2018-07-19T02:10:09.001Z,101910.95
2018-07-19T02:12:37.440Z,101909.38
2018-07-19T02:15:06.611Z,101909.39
2018-07-19T02:17:34.945Z,101904.28
2018-07-19T02:20:03.232Z,101910.20
2018-07-19T02:22:31.573Z,101906.30
2018-07-19T02:24:59.848Z,101904.98
2018-07-19T02:27:28.151Z,101905.44
2018-07-19T02:29:56.430Z,101909.71
2018-07-19T02:32:24.732Z,101911.63
2018-07-19T02:34:53.023Z,101905.58
2018-07-19T02:37:21.504Z,101904.42
2018-07-19T02:39:49.776Z,101905.92
2018-07-19T02:42:18.088Z,101908.22
2018-07-19T02:44:46.369Z,101908.35
2018-07-19T02:47:14.657Z,101904.08
2018-07-19T02:49:42.929Z,101901.16
2018-07-19T02:52:11.209Z,101905.61
2018-07-19T02:54:39.516Z,101911.20
2018-07-19T02:57:08.092Z,101918.13
2018-07-19T02:59:36.380Z,101916.48
2018-07-19T03:02:04.818Z,101916.02
2018-07-19T03:04:33.040Z,101908.52
2018-07-19T03:07:01.425Z,101909.30
2018-07-19T03:09:29.706Z,101919.13
2018-07-19T03:11:57.964Z,101915.17
2018-07-19T03:14:26.384Z,101911.72
2018-07-19T03:16:54.657Z,101916.80
2018-07-19T03:19:22.930Z,101910.86
2018-07-19T03:21:51.170Z,101917.39
2018-07-19T03:24:19.484Z,101912.80
2018-07-19T03:26:47.737Z,101915.66
2018-07-19T03:29:16.029Z,101912.80
2018-07-19T03:31:44.293Z,101913.73
2018-07-19T03:34:12.568Z,101915.89
2018-07-19T03:36:41.665Z,101917.42
2018-07-19T03:39:10.921Z,101914.78
2018-07-19T03:41:39.197Z,101911.58
2018-07-19T03:44:07.655Z,101910.23
2018-07-19T03:46:36.364Z,101915.69
2018-07-19T03:49:04.613Z,101917.36
2018-07-19T03:51:32.902Z,101912.59
2018-07-19T03:54:01.165Z,101905.75
2018-07-19T03:56:29.449Z,101906.72
2018-07-19T03:58:57.704Z,101910.58
2018-07-19T04:01:25.981Z,101910.89
2018-07-19T04:03:54.229Z,101910.61
2018-07-19T04:06:22.512Z,101909.36
2018-07-19T04:08:50.768Z,101916.24
2018-07-19T04:11:19.055Z,101923.12
2018-07-19T04:13:47.309Z,101923.47
2018-07-19T04:16:15.633Z,101913.85
2018-07-19T04:18:43.892Z,101918.19
2018-07-19T04:21:12.180Z,101916.47
2018-07-19T04:23:40.416Z,101920.27
2018-07-19T04:26:08.709Z,101914.10
2018-07-19T04:28:36.976Z,101918.14
2018-07-19T04:31:05.257Z,101922.10
2018-07-19T04:33:33.552Z,101928.24
2018-07-19T04:36:01.801Z,101924.72
2018-07-19T04:38:30.076Z,101928.05
2018-07-19T04:40:58.577Z,101925.84
2018-07-19T04:43:26.847Z,101928.63
2018-07-19T04:45:55.105Z,101930.26
2018-07-19T04:48:23.405Z,101926.38
2018-07-19T04:50:51.636Z,101925.95
2018-07-19T04:53:19.936Z,101928.35
2018-07-19T04:55:48.216Z,101934.39
2018-07-19T04:58:16.492Z,101931.10
2018-07-19T05:00:44.733Z,101930.05
2018-07-19T05:03:13.040Z,101938.48
2018-07-19T05:05:41.300Z,101939.45
2018-07-19T05:08:09.594Z,101934.89
2018-07-19T05:10:37.856Z,101934.55
2018-07-19T05:13:06.189Z,101934.17
2018-07-19T05:15:34.524Z,101939.30
2018-07-19T05:18:03.085Z,101939.94
2018-07-19T05:20:31.373Z,101936.64
2018-07-19T05:23:00.766Z,101943.82
2018-07-19T05:25:29.031Z,101945.15
2018-07-19T05:27:57.304Z,101950.38
2018-07-19T05:30:25.604Z,101946.91
2018-07-19T05:32:53.917Z,101942.28
2018-07-19T05:35:22.651Z,101947.10
2018-07-19T05:37:50.932Z,101947.45
